Time;durP1;ratioP1;P1;durP2;ratioP2;P2;SDS_P1;SDS_P2;PMS_P1;PMS_P2;Temp;Humidity;BMP_temperature;BMP_pressure;BME280_temperature;BME280_humidity;BME280_pressure;Samples;Min_cycle;Max_cycle;Signal;HPM_P1;HPM_P2
2023/06/20 00:02:21;;;;;;;7.40;6.70;;;;;;;;;;5072557;28;20731;-56
2023/06/20 00:04:47;;;;;;;6.87;6.27;;;;;;;;;;5070179;28;20246;-57
2023/06/20 00:07:13;;;;;;;7.40;5.77;;;;;;;;;;5070605;28;20207;-57
2023/06/20 00:09:41;;;;;;;8.23;6.37;;;;;;;;;;5072322;28;20596;-57
2023/06/20 00:12:07;;;;;;;6.50;5.90;;;;;;;;;;5072690;28;20199;-57
2023/06/20 00:14:37;;;;;;;6.87;6.27;;;;;;;;;;5072384;28;20290;-58
2023/06/20 00:17:05;;;;;;;7.57;6.87;;;;;;;;;;5072389;28;20626;-58
2023/06/20 00:19:31;;;;;;;7.17;6.47;;;;;;;;;;5072240;28;20195;-60
2023/06/20 00:21:57;;;;;;;8.17;6.50;;;;;;;;;;5072578;28;20188;-59
2023/06/20 00:24:23;;;;;;;6.93;6.33;;;;;;;;;;5072149;28;20286;-60
2023/06/20 00:26:50;;;;;;;9.53;7.00;;;;;;;;;;5072134;28;20236;-59
2023/06/20 00:29:16;;;;;;;7.17;6.50;;;;;;;;;;5071869;28;20630;-59
2023/06/20 00:31:42;;;;;;;7.73;7.00;;;;;;;;;;5072014;28;20196;-59
2023/06/20 00:34:08;;;;;;;7.87;6.93;;;;;;;;;;5072064;28;20203;-60
2023/06/20 00:36:34;;;;;;;6.87;6.27;;;;;;;;;;5072014;28;20203;-59
2023/06/20 00:39:00;;;;;;;7.57;6.80;;;;;;;;;;5071918;28;20199;-59
2023/06/20 00:41:26;;;;;;;8.70;7.60;;;;;;;;;;5071786;28;20572;-59
2023/06/20 00:43:53;;;;;;;7.93;7.13;;;;;;;;;;5071991;28;20204;-59
2023/06/20 00:46:23;;;;;;;7.63;6.83;;;;;;;;;;5071814;28;20199;-59
2023/06/20 00:48:49;;;;;;;8.00;7.30;;;;;;;;;;5071071;28;20227;-60
2023/06/20 00:51:16;;;;;;;7.97;7.27;;;;;;;;;;5071668;28;20282;-58
2023/06/20 00:53:42;;;;;;;8.40;7.60;;;;;;;;;;5071481;28;20219;-57
2023/06/20 00:56:09;;;;;;;8.47;7.60;;;;;;;;;;5071646;28;20261;-60
2023/06/20 00:58:35;;;;;;;8.50;7.80;;;;;;;;;;5071785;28;20560;-59
2023/06/20 01:01:03;;;;;;;8.90;8.10;;;;;;;;;;5071422;28;20267;-60
2023/06/20 01:03:30;;;;;;;8.13;7.43;;;;;;;;;;5071402;28;20199;-60
2023/06/20 01:06:09;;;;;;;8.53;7.83;;;;;;;;;;5071441;28;20250;-60
2023/06/20 01:08:37;;;;;;;9.07;8.17;;;;;;;;;;5071345;28;20288;-59
2023/06/20 01:11:06;;;;;;;8.67;7.87;;;;;;;;;;5071513;28;20195;-59
2023/06/20 01:13:36;;;;;;;9.20;8.30;;;;;;;;;;5071243;28;20712;-59
2023/06/20 01:16:08;;;;;;;10.10;9.20;;;;;;;;;;5071398;28;20205;-59
2023/06/20 01:18:38;;;;;;;9.40;8.50;;;;;;;;;;5071371;28;20207;-59
2023/06/20 01:21:09;;;;;;;9.83;8.87;;;;;;;;;;5071415;28;20545;-59
2023/06/20 01:23:41;;;;;;;9.03;8.13;;;;;;;;;;5071335;28;20203;-59
2023/06/20 01:26:09;;;;;;;9.70;8.70;;;;;;;;;;5071223;28;20235;-59
2023/06/20 01:28:39;;;;;;;9.80;8.77;;;;;;;;;;5071234;28;20219;-58
2023/06/20 01:31:08;;;;;;;11.47;8.63;;;;;;;;;;5071348;28;20288;-59
2023/06/20 01:33:36;;;;;;;9.60;8.70;;;;;;;;;;5071138;28;20198;-59
2023/06/20 01:36:02;;;;;;;9.53;8.53;;;;;;;;;;5071148;28;20241;-58
2023/06/20 01:38:30;;;;;;;8.87;8.07;;;;;;;;;;5070854;28;20222;-59
2023/06/20 01:40:59;;;;;;;8.67;7.90;;;;;;;;;;5071101;28;20202;-59
2023/06/20 01:43:26;;;;;;;9.37;8.43;;;;;;;;;;5070850;28;20246;-59
2023/06/20 01:45:52;;;;;;;9.60;8.80;;;;;;;;;;5071233;28;20199;-59
2023/06/20 01:48:19;;;;;;;9.67;8.87;;;;;;;;;;5071010;28;20203;-59
2023/06/20 01:50:47;;;;;;;9.43;8.53;;;;;;;;;;5071036;28;20214;-58
2023/06/20 01:53:13;;;;;;;9.90;9.00;;;;;;;;;;5070811;28;20664;-59
2023/06/20 01:55:41;;;;;;;9.50;8.67;;;;;;;;;;5070897;28;20265;-59
2023/06/20 01:58:08;;;;;;;9.47;8.57;;;;;;;;;;5071034;28;20211;-59
2023/06/20 02:00:36;;;;;;;9.47;8.57;;;;;;;;;;5074697;28;20207;-59
2023/06/20 02:03:02;;;;;;;9.70;8.70;;;;;;;;;;5075158;28;20233;-58
2023/06/20 02:05:29;;;;;;;9.80;8.97;;;;;;;;;;5074910;28;20226;-58
2023/06/20 02:07:56;;;;;;;10.13;9.13;;;;;;;;;;5074770;28;20631;-59
2023/06/20 02:10:22;;;;;;;11.07;9.17;;;;;;;;;;5074694;28;20300;-59
2023/06/20 02:12:49;;;;;;;10.17;9.20;;;;;;;;;;5074883;28;20204;-59
2023/06/20 02:15:17;;;;;;;9.57;8.53;;;;;;;;;;5074586;28;20213;-59
2023/06/20 02:17:44;;;;;;;11.60;9.97;;;;;;;;;;5074513;28;20610;-59
2023/06/20 02:20:11;;;;;;;10.63;9.63;;;;;;;;;;5074532;28;20240;-59
2023/06/20 02:22:37;;;;;;;10.13;9.13;;;;;;;;;;5074517;28;20658;-59
2023/06/20 02:25:05;;;;;;;10.00;9.10;;;;;;;;;;5074424;28;20246;-59
2023/06/20 02:27:32;;;;;;;12.03;9.40;;;;;;;;;;5074387;28;20199;-60
2023/06/20 02:30:00;;;;;;;11.23;10.23;;;;;;;;;;5074591;28;20223;-59
2023/06/20 02:32:27;;;;;;;10.40;9.43;;;;;;;;;;5074243;28;20201;-58
2023/06/20 02:34:55;;;;;;;10.60;9.60;;;;;;;;;;5074396;28;20206;-58
2023/06/20 02:37:22;;;;;;;11.40;10.30;;;;;;;;;;5074374;28;20279;-58
2023/06/20 02:39:49;;;;;;;10.03;9.13;;;;;;;;;;5074325;28;20597;-59
2023/06/20 02:42:15;;;;;;;10.50;9.50;;;;;;;;;;5074237;28;20283;-59
2023/06/20 02:44:41;;;;;;;8.70;7.93;;;;;;;;;;5074173;28;20194;-58
2023/06/20 02:47:12;;;;;;;10.27;9.20;;;;;;;;;;5074236;28;20195;-59
2023/06/20 02:49:40;;;;;;;10.40;9.20;;;;;;;;;;5074145;28;20238;-59
2023/06/20 02:52:11;;;;;;;9.73;8.83;;;;;;;;;;5074187;28;20245;-59
2023/06/20 02:54:42;;;;;;;10.30;9.30;;;;;;;;;;5074010;28;20199;-59
2023/06/20 02:57:11;;;;;;;10.00;9.10;;;;;;;;;;5073957;28;20210;-59
2023/06/20 02:59:39;;;;;;;10.20;9.20;;;;;;;;;;5073886;28;20203;-58
2023/06/20 03:02:06;;;;;;;10.77;9.70;;;;;;;;;;5074063;28;20234;-59
2023/06/20 03:04:33;;;;;;;10.50;9.40;;;;;;;;;;5073291;28;20227;-59
2023/06/20 03:07:01;;;;;;;10.27;9.37;;;;;;;;;;5073126;28;20200;-59
2023/06/20 03:09:28;;;;;;;11.23;10.03;;;;;;;;;;5073399;28;20227;-59
2023/06/20 03:11:53;;;;;;;11.63;9.70;;;;;;;;;;5072818;28;20239;-59
2023/06/20 03:14:20;;;;;;;10.10;9.03;;;;;;;;;;5073674;28;20226;-59
2023/06/20 03:16:46;;;;;;;10.00;8.93;;;;;;;;;;5073398;28;20299;-58
2023/06/20 03:19:12;;;;;;;9.90;9.00;;;;;;;;;;5073501;28;20199;-59
2023/06/20 03:21:38;;;;;;;10.00;9.00;;;;;;;;;;5073309;28;20198;-59
2023/06/20 03:24:06;;;;;;;10.47;8.97;;;;;;;;;;5073605;28;20191;-59
2023/06/20 03:26:33;;;;;;;10.90;9.63;;;;;;;;;;5073116;28;20243;-59
2023/06/20 03:28:59;;;;;;;9.93;8.93;;;;;;;;;;5073173;28;20222;-59
2023/06/20 03:31:26;;;;;;;11.07;10.07;;;;;;;;;;5073211;28;20205;-59
2023/06/20 03:33:52;;;;;;;10.10;9.20;;;;;;;;;;5073605;28;20213;-59
2023/06/20 03:36:18;;;;;;;10.80;9.83;;;;;;;;;;5073223;28;20195;-59
2023/06/20 03:38:44;;;;;;;10.60;9.70;;;;;;;;;;5072928;28;20206;-59
2023/06/20 03:41:11;;;;;;;10.60;9.50;;;;;;;;;;5073090;28;20658;-58
2023/06/20 03:43:37;;;;;;;10.30;9.30;;;;;;;;;;5073226;28;20230;-59
2023/06/20 03:46:03;;;;;;;9.77;8.87;;;;;;;;;;5073116;28;20279;-58
2023/06/20 03:48:29;;;;;;;10.50;9.43;;;;;;;;;;5072782;28;20202;-59
2023/06/20 03:50:55;;;;;;;10.87;9.83;;;;;;;;;;5072900;28;20199;-58
2023/06/20 03:53:21;;;;;;;9.90;9.00;;;;;;;;;;5072860;28;20199;-59
2023/06/20 03:55:47;;;;;;;9.90;9.00;;;;;;;;;;5072796;28;20249;-59
2023/06/20 03:58:14;;;;;;;10.07;9.07;;;;;;;;;;5072646;28;20752;-59
2023/06/20 04:00:40;;;;;;;9.73;8.83;;;;;;;;;;5072509;28;20700;-59
2023/06/20 04:03:06;;;;;;;10.50;9.27;;;;;;;;;;5072852;28;20196;-59
2023/06/20 04:05:33;;;;;;;10.33;9.43;;;;;;;;;;5072448;28;20277;-59
2023/06/20 04:08:00;;;;;;;9.80;8.80;;;;;;;;;;5072564;28;20191;-59
2023/06/20 04:10:27;;;;;;;10.00;9.10;;;;;;;;;;5072314;28;20642;-58
2023/06/20 04:12:53;;;;;;;8.77;7.97;;;;;;;;;;5072633;28;20537;-59
2023/06/20 04:15:20;;;;;;;9.33;8.50;;;;;;;;;;5072559;28;20222;-58
2023/06/20 04:17:46;;;;;;;10.17;9.17;;;;;;;;;;5072227;28;20199;-58
2023/06/20 04:20:13;;;;;;;9.37;8.47;;;;;;;;;;5072325;28;20195;-59
2023/06/20 04:22:42;;;;;;;9.80;8.97;;;;;;;;;;5072087;28;20254;-59
2023/06/20 04:25:08;;;;;;;9.73;8.83;;;;;;;;;;5072192;28;20242;-59
2023/06/20 04:27:34;;;;;;;9.87;8.90;;;;;;;;;;5072218;28;20195;-59
2023/06/20 04:30:01;;;;;;;9.67;8.87;;;;;;;;;;5072023;28;20285;-59
2023/06/20 04:32:28;;;;;;;9.77;8.90;;;;;;;;;;5072003;28;20207;-59
2023/06/20 04:34:54;;;;;;;10.33;9.33;;;;;;;;;;5072062;28;20210;-59
2023/06/20 04:37:20;;;;;;;10.03;8.83;;;;;;;;;;5071981;28;20199;-59
2023/06/20 04:39:46;;;;;;;10.87;9.73;;;;;;;;;;5071879;28;20195;-59
2023/06/20 04:42:12;;;;;;;10.00;9.10;;;;;;;;;;5071860;28;20207;-59
2023/06/20 04:44:38;;;;;;;13.40;12.10;;;;;;;;;;5071591;28;20261;-59
2023/06/20 04:47:04;;;;;;;10.07;9.10;;;;;;;;;;5071826;28;20223;-59
2023/06/20 04:49:31;;;;;;;10.63;8.87;;;;;;;;;;5071538;28;20223;-60
2023/06/20 04:51:57;;;;;;;9.93;9.00;;;;;;;;;;5070201;28;20207;-59
2023/06/20 04:54:24;;;;;;;9.20;8.37;;;;;;;;;;5071539;28;20196;-59
2023/06/20 04:56:50;;;;;;;9.37;8.57;;;;;;;;;;5071836;28;20274;-59
2023/06/20 04:59:16;;;;;;;10.03;9.07;;;;;;;;;;5071513;28;20631;-59
2023/06/20 05:01:42;;;;;;;11.90;10.10;;;;;;;;;;5071400;28;20195;-59
2023/06/20 05:04:08;;;;;;;10.43;8.77;;;;;;;;;;5071567;28;20606;-59
2023/06/20 05:06:35;;;;;;;9.73;8.83;;;;;;;;;;5071408;28;20187;-59
2023/06/20 05:09:01;;;;;;;9.53;8.63;;;;;;;;;;5071285;28;20694;-59
2023/06/20 05:11:27;;;;;;;9.80;8.80;;;;;;;;;;5071209;28;20202;-59
2023/06/20 05:13:53;;;;;;;8.70;7.93;;;;;;;;;;5071258;28;20710;-60
2023/06/20 05:16:19;;;;;;;10.00;9.10;;;;;;;;;;5071201;28;20253;-60
2023/06/20 05:18:46;;;;;;;9.10;8.30;;;;;;;;;;5070915;28;20610;-59
2023/06/20 05:21:12;;;;;;;8.67;7.97;;;;;;;;;;5070928;28;20290;-59
2023/06/20 05:23:40;;;;;;;10.27;8.20;;;;;;;;;;5071148;28;20207;-59
2023/06/20 05:26:06;;;;;;;8.93;8.23;;;;;;;;;;5071352;28;20251;-59
2023/06/20 05:28:32;;;;;;;9.00;8.20;;;;;;;;;;5070946;28;20230;-59
2023/06/20 05:30:57;;;;;;;9.00;8.30;;;;;;;;;;5071011;28;20202;-60
2023/06/20 05:33:24;;;;;;;10.40;9.50;;;;;;;;;;5070556;28;20665;-59
2023/06/20 05:35:50;;;;;;;9.47;8.67;;;;;;;;;;5071016;28;20196;-60
2023/06/20 05:38:16;;;;;;;10.13;9.23;;;;;;;;;;5070820;28;20674;-60
2023/06/20 05:40:44;;;;;;;10.17;9.27;;;;;;;;;;5070772;28;20206;-59
2023/06/20 05:43:10;;;;;;;9.97;8.97;;;;;;;;;;5070956;28;20199;-59
2023/06/20 05:45:35;;;;;;;12.40;10.70;;;;;;;;;;5071039;28;20196;-60
2023/06/20 05:48:02;;;;;;;10.57;9.60;;;;;;;;;;5070854;28;20210;-59
2023/06/20 05:50:30;;;;;;;11.50;10.50;;;;;;;;;;5070682;28;20231;-60
2023/06/20 05:52:56;;;;;;;10.13;9.23;;;;;;;;;;5070866;28;20200;-59
2023/06/20 05:55:22;;;;;;;9.90;9.00;;;;;;;;;;5070939;28;20202;-59
2023/06/20 05:57:50;;;;;;;9.50;8.60;;;;;;;;;;5070965;28;20730;-59
2023/06/20 06:00:16;;;;;;;9.57;8.77;;;;;;;;;;5070825;28;20188;-59
2023/06/20 06:02:45;;;;;;;11.70;10.50;;;;;;;;;;5070618;28;20249;-60
2023/06/20 06:05:12;;;;;;;10.53;9.53;;;;;;;;;;5070622;28;20717;-59
2023/06/20 06:07:38;;;;;;;11.73;10.53;;;;;;;;;;5070468;28;20195;-59
2023/06/20 06:10:04;;;;;;;10.03;9.20;;;;;;;;;;5070803;28;20226;-60
2023/06/20 06:12:30;;;;;;;10.07;9.07;;;;;;;;;;5070604;28;20240;-60
2023/06/20 06:14:58;;;;;;;9.63;8.73;;;;;;;;;;5070706;28;20207;-59
2023/06/20 06:17:26;;;;;;;9.57;8.67;;;;;;;;;;5070493;28;20215;-59
2023/06/20 06:19:55;;;;;;;10.57;9.67;;;;;;;;;;5070905;28;20249;-59
2023/06/20 06:22:21;;;;;;;11.63;10.10;;;;;;;;;;5070689;28;20686;-60
2023/06/20 06:24:47;;;;;;;12.43;11.17;;;;;;;;;;5070365;28;20208;-59
2023/06/20 06:27:13;;;;;;;12.60;11.53;;;;;;;;;;5070617;28;20199;-59
2023/06/20 06:29:39;;;;;;;12.07;10.97;;;;;;;;;;5070116;28;20270;-59
2023/06/20 06:32:08;;;;;;;13.13;11.37;;;;;;;;;;5070485;28;20237;-60
2023/06/20 06:34:34;;;;;;;10.97;10.03;;;;;;;;;;5070271;28;20199;-60
2023/06/20 06:37:00;;;;;;;9.10;8.33;;;;;;;;;;5070416;28;20195;-59
2023/06/20 06:39:27;;;;;;;10.83;9.83;;;;;;;;;;5070270;28;20230;-59
2023/06/20 06:41:52;;;;;;;11.70;9.30;;;;;;;;;;5070596;28;20199;-55
2023/06/20 06:44:19;;;;;;;12.20;11.00;;;;;;;;;;5070463;28;20196;-54
2023/06/20 06:46:45;;;;;;;12.40;11.17;;;;;;;;;;5072475;28;20206;-54
2023/06/20 06:49:13;;;;;;;13.13;11.93;;;;;;;;;;5073935;28;20253;-53
2023/06/20 06:51:39;;;;;;;13.80;12.57;;;;;;;;;;5073919;28;20741;-54
2023/06/20 06:54:05;;;;;;;13.37;12.07;;;;;;;;;;5074225;28;20278;-53
2023/06/20 06:56:31;;;;;;;13.50;12.20;;;;;;;;;;5073914;28;20324;-54
2023/06/20 06:59:00;;;;;;;12.47;11.30;;;;;;;;;;5073838;28;20588;-54
2023/06/20 07:01:26;;;;;;;11.63;10.53;;;;;;;;;;5073704;28;20196;-54
2023/06/20 07:03:53;;;;;;;13.27;12.07;;;;;;;;;;5073876;28;20249;-54
2023/06/20 07:06:20;;;;;;;12.33;11.23;;;;;;;;;;5074026;28;20676;-55
2023/06/20 07:08:46;;;;;;;11.83;10.83;;;;;;;;;;5073613;28;20199;-55
2023/06/20 07:11:12;;;;;;;10.97;9.87;;;;;;;;;;5073555;28;20677;-54
2023/06/20 07:13:38;;;;;;;10.73;9.83;;;;;;;;;;5073649;28;20653;-56
2023/06/20 07:16:04;;;;;;;11.93;10.80;;;;;;;;;;5073770;28;20199;-57
2023/06/20 07:18:30;;;;;;;11.40;10.40;;;;;;;;;;5073496;28;20184;-55
2023/06/20 07:20:57;;;;;;;14.80;13.27;;;;;;;;;;5073340;28;20206;-55
2023/06/20 07:23:24;;;;;;;12.00;10.80;;;;;;;;;;5073395;28;20200;-56
2023/06/20 07:25:50;;;;;;;12.27;11.27;;;;;;;;;;5073357;28;20235;-56
2023/06/20 07:28:16;;;;;;;12.30;11.20;;;;;;;;;;5073311;28;20808;-56
2023/06/20 07:30:42;;;;;;;11.60;10.50;;;;;;;;;;5073085;28;20231;-56
2023/06/20 07:33:08;;;;;;;13.10;11.97;;;;;;;;;;5073241;28;20576;-55
2023/06/20 07:35:34;;;;;;;12.37;11.27;;;;;;;;;;5073287;28;20231;-56
2023/06/20 07:38:01;;;;;;;11.83;10.73;;;;;;;;;;5067586;28;20241;-55
2023/06/20 07:40:28;;;;;;;11.63;10.63;;;;;;;;;;5072954;28;20397;-55
2023/06/20 07:42:54;;;;;;;12.70;11.33;;;;;;;;;;5072917;28;20210;-56
2023/06/20 07:45:20;;;;;;;11.47;10.27;;;;;;;;;;5068299;28;20282;-56
2023/06/20 07:47:46;;;;;;;11.47;10.23;;;;;;;;;;5072277;28;20235;-56
2023/06/20 07:50:12;;;;;;;10.50;9.60;;;;;;;;;;5072500;28;20721;-56
2023/06/20 07:52:40;;;;;;;9.90;9.10;;;;;;;;;;5072466;28;20199;-56
2023/06/20 07:55:06;;;;;;;10.37;9.47;;;;;;;;;;5072773;28;20226;-56
2023/06/20 07:57:33;;;;;;;10.60;9.47;;;;;;;;;;5072020;28;20306;-57
2023/06/20 07:59:59;;;;;;;10.33;9.53;;;;;;;;;;5072689;28;20201;-56
2023/06/20 08:02:28;;;;;;;11.10;10.00;;;;;;;;;;5072257;28;20192;-57
2023/06/20 08:04:54;;;;;;;10.00;9.10;;;;;;;;;;5072282;28;20238;-56
2023/06/20 08:07:20;;;;;;;10.37;9.37;;;;;;;;;;5072115;28;20314;-57
2023/06/20 08:09:46;;;;;;;9.63;8.73;;;;;;;;;;5071891;28;20227;-56
2023/06/20 08:12:12;;;;;;;9.30;8.50;;;;;;;;;;5071739;28;20269;-56
2023/06/20 08:14:39;;;;;;;11.70;10.53;;;;;;;;;;5072073;28;20655;-56
2023/06/20 08:17:05;;;;;;;10.53;9.50;;;;;;;;;;5072549;28;20195;-55
2023/06/20 08:19:31;;;;;;;9.63;8.83;;;;;;;;;;5071979;28;20195;-56
2023/06/20 08:21:57;;;;;;;10.00;9.20;;;;;;;;;;5072014;28;20286;-55
2023/06/20 08:24:23;;;;;;;11.10;10.13;;;;;;;;;;5071506;28;20253;-54
2023/06/20 08:26:49;;;;;;;10.20;9.30;;;;;;;;;;5071845;28;20325;-54
2023/06/20 08:29:15;;;;;;;10.10;9.13;;;;;;;;;;5071670;28;20222;-56
2023/06/20 08:31:44;;;;;;;10.87;9.97;;;;;;;;;;5071723;28;20199;-55
2023/06/20 08:34:10;;;;;;;9.87;8.97;;;;;;;;;;5072042;28;20208;-55
2023/06/20 08:36:36;;;;;;;11.13;10.13;;;;;;;;;;5071497;28;20563;-56
2023/06/20 08:39:04;;;;;;;13.03;11.83;;;;;;;;;;5071802;28;20202;-55
2023/06/20 08:41:30;;;;;;;14.30;12.77;;;;;;;;;;5071394;28;20250;-55
2023/06/20 08:43:56;;;;;;;12.43;11.23;;;;;;;;;;5071649;28;20214;-55
2023/06/20 08:46:24;;;;;;;11.20;10.20;;;;;;;;;;5071648;28;20202;-56
2023/06/20 08:48:51;;;;;;;11.40;10.50;;;;;;;;;;5071282;28;20204;-57
2023/06/20 08:51:17;;;;;;;12.47;11.27;;;;;;;;;;5071444;28;20204;-57
2023/06/20 08:53:46;;;;;;;11.37;10.43;;;;;;;;;;5070882;28;20623;-57
2023/06/20 08:56:12;;;;;;;12.23;11.03;;;;;;;;;;5071346;28;20282;-56
2023/06/20 08:58:38;;;;;;;11.87;10.87;;;;;;;;;;5071350;28;20258;-56
2023/06/20 09:01:07;;;;;;;10.60;9.37;;;;;;;;;;5071070;28;20195;-57
2023/06/20 09:03:33;;;;;;;10.20;9.20;;;;;;;;;;5071119;28;20234;-58
2023/06/20 09:06:00;;;;;;;9.97;9.07;;;;;;;;;;5071190;28;20922;-57
2023/06/20 09:08:33;;;;;;;10.63;9.70;;;;;;;;;;5070293;28;20217;-56
2023/06/20 09:11:05;;;;;;;10.20;9.17;;;;;;;;;;5071252;28;20637;-56
2023/06/20 09:13:31;;;;;;;10.07;9.13;;;;;;;;;;5070652;28;20200;-57
2023/06/20 09:16:04;;;;;;;9.90;8.97;;;;;;;;;;5071066;28;20204;-57
2023/06/20 09:18:31;;;;;;;12.53;11.23;;;;;;;;;;5070931;28;20200;-57
2023/06/20 09:20:58;;;;;;;11.17;10.03;;;;;;;;;;5070622;28;20206;-56
2023/06/20 09:23:29;;;;;;;9.03;8.33;;;;;;;;;;5070513;28;20730;-58
2023/06/20 09:25:56;;;;;;;10.20;9.30;;;;;;;;;;5068111;28;20274;-57
2023/06/20 09:28:23;;;;;;;8.90;8.10;;;;;;;;;;5068759;28;20223;-58
2023/06/20 09:30:49;;;;;;;11.07;10.17;;;;;;;;;;5071092;28;20247;-57
2023/06/20 09:33:15;;;;;;;9.83;8.93;;;;;;;;;;5070753;28;20725;-57
2023/06/20 09:35:41;;;;;;;10.73;9.73;;;;;;;;;;5070615;28;20604;-59
2023/06/20 09:38:07;;;;;;;9.20;8.40;;;;;;;;;;5070757;28;20219;-58
2023/06/20 09:40:43;;;;;;;10.03;9.17;;;;;;;;;;5070888;28;20199;-59
2023/06/20 09:43:09;;;;;;;8.63;7.83;;;;;;;;;;5070785;28;20213;-58
2023/06/20 09:45:36;;;;;;;8.53;7.73;;;;;;;;;;5070894;28;20226;-58
2023/06/20 09:48:02;;;;;;;10.50;9.57;;;;;;;;;;5070836;28;20530;-57
2023/06/20 09:50:29;;;;;;;11.20;10.10;;;;;;;;;;5070353;28;20227;-57
2023/06/20 09:52:58;;;;;;;9.53;8.73;;;;;;;;;;5070920;28;20207;-57
2023/06/20 09:55:25;;;;;;;11.60;10.23;;;;;;;;;;5068859;28;20196;-57
2023/06/20 09:57:54;;;;;;;11.00;10.07;;;;;;;;;;5069275;28;20300;-56
2023/06/20 10:00:23;;;;;;;10.07;9.10;;;;;;;;;;5070694;28;20195;-57
2023/06/20 10:02:49;;;;;;;9.87;8.97;;;;;;;;;;5070523;28;20268;-55
2023/06/20 10:05:16;;;;;;;9.87;8.80;;;;;;;;;;5070465;28;20556;-56
2023/06/20 10:07:43;;;;;;;10.07;8.90;;;;;;;;;;5070599;28;20727;-56
2023/06/20 10:10:09;;;;;;;8.77;7.97;;;;;;;;;;5070589;28;20720;-56
2023/06/20 10:12:35;;;;;;;9.27;8.43;;;;;;;;;;5070694;28;20200;-56
2023/06/20 10:15:03;;;;;;;8.80;7.40;;;;;;;;;;5070720;28;20275;-56
2023/06/20 10:17:31;;;;;;;7.03;6.43;;;;;;;;;;5070531;28;20222;-56
2023/06/20 10:19:58;;;;;;;7.50;6.90;;;;;;;;;;5071484;28;20719;-56
2023/06/20 10:22:34;;;;;;;6.57;6.07;;;;;;;;;;5074522;28;20234;-56
2023/06/20 10:25:02;;;;;;;6.40;5.90;;;;;;;;;;5074300;28;20315;-56
2023/06/20 10:27:28;;;;;;;6.83;5.67;;;;;;;;;;5074435;28;20228;-56
2023/06/20 10:29:54;;;;;;;7.77;6.50;;;;;;;;;;5074201;28;20249;-56
2023/06/20 10:32:22;;;;;;;7.90;7.20;;;;;;;;;;5074495;28;20747;-57
2023/06/20 10:34:52;;;;;;;6.83;6.20;;;;;;;;;;5074259;28;20626;-56
2023/06/20 10:37:41;;;;;;;5.90;5.40;;;;;;;;;;5074194;28;20180;-56
2023/06/20 10:40:10;;;;;;;6.80;6.20;;;;;;;;;;5074389;28;20603;-57
2023/06/20 10:42:38;;;;;;;6.13;5.63;;;;;;;;;;5074234;28;20200;-61
2023/06/20 10:45:16;;;;;;;6.20;5.63;;;;;;;;;;5074318;28;20224;-58
2023/06/20 10:47:44;;;;;;;7.03;6.33;;;;;;;;;;5073941;28;20295;-60
2023/06/20 10:50:13;;;;;;;6.87;6.17;;;;;;;;;;5073913;28;20229;-60
2023/06/20 10:52:42;;;;;;;5.70;5.07;;;;;;;;;;5073900;28;20198;-63
2023/06/20 10:55:08;;;;;;;6.90;6.20;;;;;;;;;;5074030;28;20209;-59
2023/06/20 10:57:35;;;;;;;6.40;5.90;;;;;;;;;;5074037;28;20543;-59
2023/06/20 11:00:06;;;;;;;6.33;5.83;;;;;;;;;;5073958;28;20216;-59
2023/06/20 11:02:34;;;;;;;6.17;5.60;;;;;;;;;;5073843;28;20285;-60
2023/06/20 11:05:04;;;;;;;6.07;5.47;;;;;;;;;;5073631;28;20714;-58
2023/06/20 11:07:30;;;;;;;6.10;5.60;;;;;;;;;;5073691;28;20205;-57
2023/06/20 11:09:56;;;;;;;6.47;5.87;;;;;;;;;;5073539;28;20232;-58
2023/06/20 11:12:21;;;;;;;5.57;5.07;;;;;;;;;;5073896;28;20271;-55
2023/06/20 11:14:48;;;;;;;6.10;5.60;;;;;;;;;;5073584;28;20209;-56
2023/06/20 11:17:14;;;;;;;5.70;5.20;;;;;;;;;;5073591;28;20226;-55
2023/06/20 11:19:40;;;;;;;6.70;6.10;;;;;;;;;;5073412;28;20699;-54
2023/06/20 11:22:08;;;;;;;6.07;5.47;;;;;;;;;;5073637;28;20611;-54
2023/06/20 11:24:36;;;;;;;5.80;5.20;;;;;;;;;;5073344;28;20203;-54
2023/06/20 11:27:12;;;;;;;6.13;5.50;;;;;;;;;;5073385;28;20206;-54
2023/06/20 11:29:38;;;;;;;6.23;5.57;;;;;;;;;;5073505;28;20657;-54
2023/06/20 11:32:07;;;;;;;6.20;5.70;;;;;;;;;;5072829;28;20230;-54
2023/06/20 11:34:33;;;;;;;5.53;5.13;;;;;;;;;;5073182;28;20203;-54
2023/06/20 11:36:59;;;;;;;5.60;5.10;;;;;;;;;;5073288;28;20202;-54
2023/06/20 11:39:27;;;;;;;5.83;5.20;;;;;;;;;;5073165;28;20213;-54
2023/06/20 11:41:53;;;;;;;5.73;5.30;;;;;;;;;;5073144;28;20206;-54
2023/06/20 11:44:22;;;;;;;5.27;4.87;;;;;;;;;;5073149;28;20195;-55
2023/06/20 11:46:48;;;;;;;6.17;5.63;;;;;;;;;;5072962;28;20589;-54
2023/06/20 11:49:14;;;;;;;5.97;4.77;;;;;;;;;;5072759;28;20277;-54
2023/06/20 11:51:40;;;;;;;5.73;5.23;;;;;;;;;;5072633;28;20207;-55
2023/06/20 11:54:12;;;;;;;5.47;4.90;;;;;;;;;;5072994;28;20244;-54
2023/06/20 11:56:40;;;;;;;5.57;5.07;;;;;;;;;;5072735;28;20256;-54
2023/06/20 11:59:06;;;;;;;5.43;4.80;;;;;;;;;;5072980;28;20666;-54
2023/06/20 12:01:32;;;;;;;5.23;4.83;;;;;;;;;;5072684;28;20573;-54
2023/06/20 12:04:03;;;;;;;5.50;5.00;;;;;;;;;;5072729;28;20192;-55
2023/06/20 12:06:29;;;;;;;5.27;4.73;;;;;;;;;;5072296;28;20751;-54
2023/06/20 12:08:57;;;;;;;6.33;5.40;;;;;;;;;;5072459;28;20196;-54
2023/06/20 12:11:23;;;;;;;7.10;5.80;;;;;;;;;;5072525;28;20192;-53
2023/06/20 12:13:52;;;;;;;7.80;5.70;;;;;;;;;;5072433;28;20200;-53
2023/06/20 12:16:19;;;;;;;5.73;5.13;;;;;;;;;;5072495;28;20255;-54
2023/06/20 12:18:46;;;;;;;4.93;4.53;;;;;;;;;;5072192;28;20224;-55
2023/06/20 12:21:12;;;;;;;5.50;5.10;;;;;;;;;;5072221;28;20481;-54
2023/06/20 12:23:38;;;;;;;6.27;5.03;;;;;;;;;;5072302;28;20209;-54
2023/06/20 12:26:04;;;;;;;5.20;4.80;;;;;;;;;;5072336;28;20652;-54
2023/06/20 12:28:31;;;;;;;6.60;4.70;;;;;;;;;;5072088;28;20217;-53
2023/06/20 12:30:59;;;;;;;4.83;4.43;;;;;;;;;;5071930;28;20301;-53
2023/06/20 12:33:25;;;;;;;5.83;4.77;;;;;;;;;;5072013;28;20206;-53
2023/06/20 12:35:51;;;;;;;4.53;4.13;;;;;;;;;;5071954;28;20210;-53
2023/06/20 12:38:17;;;;;;;4.57;4.17;;;;;;;;;;5071923;28;20236;-52
2023/06/20 12:40:44;;;;;;;4.97;4.57;;;;;;;;;;5071851;28;20255;-58
2023/06/20 12:43:10;;;;;;;5.17;4.67;;;;;;;;;;5071190;28;20202;-52
2023/06/20 12:45:36;;;;;;;4.10;3.80;;;;;;;;;;5071642;28;20566;-52
2023/06/20 12:48:03;;;;;;;5.37;4.00;;;;;;;;;;5071731;28;20199;-52
2023/06/20 12:50:31;;;;;;;4.83;4.23;;;;;;;;;;5071424;28;20728;-53
2023/06/20 12:52:57;;;;;;;5.87;4.90;;;;;;;;;;5071730;28;20199;-53
2023/06/20 12:55:23;;;;;;;5.40;4.70;;;;;;;;;;5071750;28;20731;-53
2023/06/20 12:57:49;;;;;;;4.83;4.40;;;;;;;;;;5071584;28;20199;-53
2023/06/20 13:00:15;;;;;;;6.07;4.60;;;;;;;;;;5071649;28;20191;-53
2023/06/20 13:02:41;;;;;;;4.80;4.40;;;;;;;;;;5071372;28;20276;-53
2023/06/20 13:05:09;;;;;;;4.90;4.50;;;;;;;;;;5071379;28;20222;-53
2023/06/20 13:07:36;;;;;;;4.63;4.23;;;;;;;;;;5071515;28;20252;-52
2023/06/20 13:10:02;;;;;;;3.90;3.60;;;;;;;;;;5071414;28;20234;-52
2023/06/20 13:12:31;;;;;;;4.80;4.30;;;;;;;;;;5071399;28;20653;-52
2023/06/20 13:14:57;;;;;;;4.10;3.80;;;;;;;;;;5071325;28;20207;-52
2023/06/20 13:17:23;;;;;;;4.03;3.73;;;;;;;;;;5071369;28;20202;-53
2023/06/20 13:19:49;;;;;;;4.23;3.73;;;;;;;;;;5071247;28;20631;-53
2023/06/20 13:22:16;;;;;;;5.77;3.83;;;;;;;;;;5071228;28;20198;-54
2023/06/20 13:24:44;;;;;;;5.60;3.70;;;;;;;;;;5070914;28;20212;-53
2023/06/20 13:27:10;;;;;;;4.90;3.87;;;;;;;;;;5071282;28;20227;-54
2023/06/20 13:29:36;;;;;;;5.27;4.53;;;;;;;;;;5070803;28;20222;-54
2023/06/20 13:32:02;;;;;;;4.13;3.83;;;;;;;;;;5070915;28;20620;-54
2023/06/20 13:34:28;;;;;;;3.70;3.40;;;;;;;;;;5070873;28;20198;-53
2023/06/20 13:36:54;;;;;;;3.43;3.13;;;;;;;;;;5071003;28;20695;-54
2023/06/20 13:39:27;;;;;;;3.53;3.30;;;;;;;;;;5071116;28;20218;-54
2023/06/20 13:41:53;;;;;;;4.80;3.63;;;;;;;;;;5070949;28;20314;-54
2023/06/20 13:44:20;;;;;;;4.13;3.80;;;;;;;;;;5071209;28;20208;-53
2023/06/20 13:46:46;;;;;;;4.13;3.83;;;;;;;;;;5070838;28;20199;-54
2023/06/20 13:49:12;;;;;;;3.77;3.47;;;;;;;;;;5070427;28;20199;-54
2023/06/20 13:51:39;;;;;;;4.20;3.90;;;;;;;;;;5070803;28;20202;-54
2023/06/20 13:54:06;;;;;;;4.23;3.90;;;;;;;;;;5071109;28;20206;-54
2023/06/20 13:56:33;;;;;;;4.20;3.80;;;;;;;;;;5074478;28;20195;-54
2023/06/20 13:58:59;;;;;;;4.03;3.73;;;;;;;;;;5075081;28;20203;-54
2023/06/20 14:01:25;;;;;;;3.87;3.57;;;;;;;;;;5075104;28;20197;-54
2023/06/20 14:03:52;;;;;;;3.70;3.40;;;;;;;;;;5074877;28;20235;-54
2023/06/20 14:06:18;;;;;;;4.50;4.10;;;;;;;;;;5074825;28;20214;-54
2023/06/20 14:08:44;;;;;;;4.80;3.80;;;;;;;;;;5074752;28;20260;-54
2023/06/20 14:11:10;;;;;;;4.20;3.90;;;;;;;;;;5074699;28;20211;-54
2023/06/20 14:13:37;;;;;;;4.13;3.80;;;;;;;;;;5074721;28;20289;-54
2023/06/20 14:16:03;;;;;;;4.87;3.57;;;;;;;;;;5074725;28;20304;-54
2023/06/20 14:18:30;;;;;;;3.77;3.47;;;;;;;;;;5074574;28;20201;-54
2023/06/20 14:20:56;;;;;;;4.27;3.60;;;;;;;;;;5074467;28;20669;-54
2023/06/20 14:23:21;;;;;;;5.17;3.93;;;;;;;;;;5074757;28;20204;-54
2023/06/20 14:25:48;;;;;;;6.63;4.10;;;;;;;;;;5074224;28;20378;-54
2023/06/20 14:28:15;;;;;;;3.90;3.60;;;;;;;;;;5074455;28;20200;-53
2023/06/20 14:30:45;;;;;;;11.23;4.10;;;;;;;;;;5074057;28;20227;-54
2023/06/20 14:33:11;;;;;;;4.33;3.90;;;;;;;;;;5074309;28;20204;-53
2023/06/20 14:35:37;;;;;;;4.60;4.20;;;;;;;;;;5074248;28;20280;-54